createdAt,value
2022-10-31T00:00:27.956Z,97.10
2022-10-31T00:03:17.106Z,107.50
2022-10-31T00:05:50.163Z,133.27
2022-10-31T00:08:18.852Z,97.25
2022-10-31T00:10:47.042Z,93.28
2022-10-31T00:13:16.555Z,99.88
2022-10-31T00:15:44.284Z,95.78
2022-10-31T00:18:12.402Z,94.88
2022-10-31T00:20:40.332Z,88.80
2022-10-31T00:23:09.948Z,83.53
2022-10-31T00:25:40.397Z,99.90
2022-10-31T00:28:11.625Z,86.90
2022-10-31T00:30:39.276Z,86.88
2022-10-31T00:33:07.099Z,110.75
2022-10-31T00:35:34.669Z,88.55
2022-10-31T00:38:02.427Z,91.53
2022-10-31T00:40:29.927Z,90.00
2022-10-31T00:42:58.264Z,87.85
2022-10-31T00:45:25.948Z,86.75
2022-10-31T00:47:54.345Z,90.38
2022-10-31T00:50:22.003Z,86.50
2022-10-31T00:52:49.867Z,89.45
2022-10-31T00:55:18.001Z,91.38
2022-10-31T00:57:48.778Z,90.78
2022-10-31T01:00:17.641Z,91.60
2022-10-31T01:02:45.645Z,96.25
2022-10-31T01:05:13.621Z,92.28
2022-10-31T01:07:42.409Z,97.93
2022-10-31T01:10:11.459Z,100.35
2022-10-31T01:12:45.768Z,105.15
2022-10-31T01:15:21.650Z,108.63
2022-10-31T01:17:50.177Z,108.43
2022-10-31T01:20:18.775Z,103.50
2022-10-31T01:22:47.004Z,102.53
2022-10-31T01:25:14.755Z,99.28
2022-10-31T01:27:45.068Z,96.38
2022-10-31T01:30:13.144Z,95.75
2022-10-31T01:32:41.000Z,95.68
2022-10-31T01:35:08.564Z,94.80
2022-10-31T01:37:36.330Z,87.10
2022-10-31T01:40:04.275Z,88.82
2022-10-31T01:42:32.002Z,87.03
2022-10-31T01:45:03.929Z,83.88
2022-10-31T01:47:44.872Z,86.00
2022-10-31T01:50:36.501Z,90.72
2022-10-31T01:53:09.292Z,107.25
2022-10-31T01:55:45.384Z,88.35
2022-10-31T01:58:26.158Z,95.43
2022-10-31T02:01:03.246Z,88.38
2022-10-31T02:03:34.862Z,91.38
2022-10-31T02:06:04.303Z,89.78
2022-10-31T02:08:36.196Z,91.90
2022-10-31T02:11:03.982Z,101.75
2022-10-31T02:13:31.810Z,99.68
2022-10-31T02:16:00.928Z,100.05
2022-10-31T02:18:31.568Z,98.80
2022-10-31T02:21:26.040Z,91.97
2022-10-31T02:24:31.473Z,94.90
2022-10-31T02:27:49.437Z,95.10
2022-10-31T02:30:29.364Z,94.30
2022-10-31T02:33:24.491Z,88.93
2022-10-31T02:36:15.887Z,96.72
2022-10-31T02:39:31.633Z,86.75
2022-10-31T02:42:17.307Z,103.22
2022-10-31T02:44:57.719Z,97.32
2022-10-31T02:47:34.647Z,94.70
2022-10-31T02:50:11.918Z,92.97
2022-10-31T02:52:40.695Z,85.65
2022-10-31T02:55:26.313Z,78.75
2022-10-31T02:58:15.309Z,90.40
2022-10-31T03:01:11.557Z,80.45
2022-10-31T03:04:29.362Z,83.05
2022-10-31T03:07:29.031Z,76.75
2022-10-31T03:10:32.630Z,73.47
2022-10-31T03:13:13.967Z,64.68
2022-10-31T03:15:46.278Z,65.22
2022-10-31T03:18:40.561Z,60.47
2022-10-31T03:21:15.658Z,60.88
2022-10-31T03:23:47.357Z,62.08
2022-10-31T03:26:22.828Z,60.53
2022-10-31T03:29:05.924Z,62.10
2022-10-31T03:31:42.968Z,63.53
2022-10-31T03:34:13.448Z,63.20
2022-10-31T03:36:42.553Z,64.55
2022-10-31T03:39:16.679Z,64.75
2022-10-31T03:41:52.677Z,75.97
2022-10-31T03:44:24.564Z,79.63
2022-10-31T03:47:00.745Z,90.68
2022-10-31T03:49:29.814Z,86.73
2022-10-31T03:52:19.303Z,78.78
2022-10-31T03:55:06.671Z,69.70
2022-10-31T03:58:04.208Z,70.95
2022-10-31T04:00:34.500Z,69.43
2022-10-31T04:03:18.530Z,70.05
2022-10-31T04:05:52.695Z,71.97
2022-10-31T04:08:27.153Z,73.57
2022-10-31T04:10:59.476Z,82.32
2022-10-31T04:13:34.957Z,88.15
2022-10-31T04:16:12.640Z,91.68
2022-10-31T04:18:44.176Z,90.10
2022-10-31T04:21:11.742Z,97.90
2022-10-31T04:23:40.089Z,98.47
2022-10-31T04:26:18.423Z,94.18
2022-10-31T04:28:46.131Z,98.78
2022-10-31T04:31:15.165Z,98.20
2022-10-31T04:33:44.776Z,92.32
2022-10-31T04:36:13.401Z,96.65
2022-10-31T04:38:41.155Z,98.15
2022-10-31T04:41:18.164Z,116.18
2022-10-31T04:43:55.090Z,98.22
2022-10-31T04:46:22.983Z,125.60
2022-10-31T04:48:50.815Z,109.15
2022-10-31T04:51:18.735Z,101.88
2022-10-31T04:53:46.477Z,105.20
2022-10-31T04:56:36.996Z,98.25
2022-10-31T04:59:11.799Z,112.32
2022-10-31T05:02:05.328Z,95.95
2022-10-31T05:04:47.880Z,109.88
2022-10-31T05:07:15.973Z,107.55
2022-10-31T05:09:44.821Z,111.05
2022-10-31T05:12:14.649Z,113.65
2022-10-31T05:15:23.691Z,98.47
2022-10-31T05:18:11.464Z,108.55
2022-10-31T05:20:44.738Z,107.03
2022-10-31T05:23:25.630Z,105.93
2022-10-31T05:25:53.347Z,103.72
2022-10-31T05:28:20.835Z,100.65
2022-10-31T05:30:48.891Z,101.43
2022-10-31T05:33:17.318Z,104.95
2022-10-31T05:36:03.626Z,102.00
2022-10-31T05:38:31.053Z,112.45
2022-10-31T05:41:06.761Z,106.03
2022-10-31T05:43:35.052Z,103.82
2022-10-31T05:46:06.383Z,112.40
2022-10-31T05:48:55.461Z,100.78
2022-10-31T05:51:42.226Z,102.38
2022-10-31T05:54:14.762Z,106.55
2022-10-31T05:56:45.468Z,107.63
2022-10-31T05:59:13.354Z,110.75
2022-10-31T06:01:42.247Z,103.97
2022-10-31T06:04:25.110Z,93.45
2022-10-31T06:06:53.637Z,102.10
2022-10-31T06:09:21.209Z,97.65
2022-10-31T06:11:48.995Z,101.82
2022-10-31T06:14:25.644Z,106.72
2022-10-31T06:16:58.516Z,92.93
2022-10-31T06:19:44.126Z,89.88
2022-10-31T06:22:16.514Z,89.65
2022-10-31T06:24:44.957Z,90.90
2022-10-31T06:27:32.925Z,98.60
2022-10-31T06:30:07.736Z,94.65
2022-10-31T06:32:37.756Z,97.22
2022-10-31T06:35:06.159Z,88.20
2022-10-31T06:37:36.129Z,98.07
2022-10-31T06:40:24.177Z,88.65
2022-10-31T06:43:15.816Z,97.45
2022-10-31T06:45:47.654Z,91.47
2022-10-31T06:48:43.097Z,86.30
2022-10-31T06:51:21.797Z,91.75
2022-10-31T06:53:52.156Z,99.65
2022-10-31T06:56:20.127Z,91.75
2022-10-31T06:58:54.037Z,98.53
2022-10-31T07:01:36.731Z,106.07
2022-10-31T07:04:04.865Z,97.50
2022-10-31T07:06:35.770Z,105.05
2022-10-31T07:09:04.034Z,98.28
2022-10-31T07:11:31.994Z,98.10
2022-10-31T07:14:00.740Z,94.13
2022-10-31T07:16:28.353Z,90.32
2022-10-31T07:18:56.256Z,94.00
2022-10-31T07:21:23.831Z,96.03
2022-10-31T07:23:52.212Z,97.55
2022-10-31T07:26:39.998Z,93.05
2022-10-31T07:29:08.467Z,98.17
2022-10-31T07:31:36.140Z,93.68
2022-10-31T07:34:15.623Z,92.85
2022-10-31T07:37:09.365Z,92.25
2022-10-31T07:39:37.779Z,92.95
2022-10-31T07:42:05.332Z,102.45
2022-10-31T07:44:34.166Z,102.00
2022-10-31T07:47:01.606Z,106.63
2022-10-31T07:49:47.964Z,111.13
2022-10-31T07:52:39.164Z,114.38
2022-10-31T07:55:31.397Z,115.13
2022-10-31T07:58:08.965Z,120.50
2022-10-31T08:00:42.819Z,117.72
2022-10-31T08:03:15.428Z,116.78
2022-10-31T08:06:01.923Z,124.60
2022-10-31T08:08:47.830Z,142.98
2022-10-31T08:11:16.086Z,139.95
2022-10-31T08:13:44.121Z,127.03
2022-10-31T08:16:15.122Z,145.48
2022-10-31T08:18:56.755Z,137.52
2022-10-31T08:21:25.351Z,144.77
2022-10-31T08:23:52.831Z,164.43
2022-10-31T08:26:23.562Z,154.32
2022-10-31T08:28:53.552Z,156.90
2022-10-31T08:31:24.820Z,164.93
2022-10-31T08:34:15.463Z,162.05
2022-10-31T08:36:45.952Z,162.60
2022-10-31T08:39:18.528Z,165.65
2022-10-31T08:41:46.384Z,175.10
2022-10-31T08:44:16.622Z,167.80
2022-10-31T08:46:44.964Z,180.50
2022-10-31T08:49:12.475Z,168.13
2022-10-31T08:51:42.346Z,183.00
2022-10-31T08:54:09.972Z,176.93
2022-10-31T08:56:37.672Z,189.02
2022-10-31T08:59:14.860Z,184.10
2022-10-31T09:02:01.075Z,183.13
2022-10-31T09:04:44.130Z,171.85
2022-10-31T09:07:27.381Z,188.93
2022-10-31T09:09:56.806Z,169.70
2022-10-31T09:12:25.291Z,156.93
2022-10-31T09:15:15.973Z,172.57
2022-10-31T09:20:47.514Z,176.82
2022-10-31T09:23:21.334Z,179.15
2022-10-31T09:25:52.371Z,171.55
2022-10-31T09:28:33.277Z,172.52
2022-10-31T09:31:19.313Z,182.00
2022-10-31T09:34:00.405Z,176.32
2022-10-31T09:36:40.324Z,180.70
2022-10-31T09:39:12.424Z,191.02
2022-10-31T09:41:59.031Z,206.07
2022-10-31T09:44:53.251Z,198.18
2022-10-31T09:48:07.431Z,187.88
2022-10-31T09:51:06.934Z,186.43
2022-10-31T09:54:43.449Z,194.05
2022-10-31T09:57:18.687Z,188.05
2022-10-31T09:59:50.480Z,184.55
2022-10-31T10:02:46.177Z,192.90
2022-10-31T10:05:59.166Z,179.23
2022-10-31T10:08:39.741Z,171.82
2022-10-31T10:12:17.854Z,182.80
2022-10-31T10:15:14.680Z,173.88
2022-10-31T10:18:18.369Z,169.38
2022-10-31T10:21:27.755Z,175.10
2022-10-31T10:26:51.651Z,163.13
2022-10-31T10:29:56.966Z,164.43
2022-10-31T10:32:51.903Z,164.63
2022-10-31T10:35:56.873Z,150.40
2022-10-31T10:38:54.559Z,146.93
2022-10-31T10:41:48.090Z,158.30
2022-10-31T10:44:16.770Z,150.68
2022-10-31T10:47:15.503Z,143.55
2022-10-31T10:49:52.849Z,150.57
2022-10-31T10:53:02.516Z,140.88
2022-10-31T10:56:00.953Z,137.15
2022-10-31T10:58:28.472Z,138.02
2022-10-31T11:00:56.890Z,142.30
2022-10-31T11:03:24.490Z,134.48
2022-10-31T11:06:02.490Z,135.82
2022-10-31T11:08:36.244Z,135.38
2022-10-31T11:11:16.232Z,145.05
2022-10-31T11:13:47.814Z,138.18
2022-10-31T11:16:28.047Z,142.10
2022-10-31T11:19:07.605Z,132.23
2022-10-31T11:21:36.265Z,131.05
2022-10-31T11:24:29.004Z,128.40
2022-10-31T11:27:21.069Z,122.75
2022-10-31T11:29:48.623Z,113.80
2022-10-31T11:32:36.735Z,121.43
2022-10-31T11:35:14.722Z,122.13
2022-10-31T11:37:46.258Z,114.78
2022-10-31T11:40:24.128Z,118.25
2022-10-31T11:42:56.614Z,117.07
2022-10-31T11:45:24.046Z,112.43
2022-10-31T11:47:59.631Z,120.40
2022-10-31T11:50:40.259Z,108.68
2022-10-31T11:53:35.324Z,106.85
2022-10-31T11:56:16.386Z,105.05
2022-10-31T11:58:44.445Z,108.80
2022-10-31T12:01:34.061Z,110.07
2022-10-31T12:04:10.226Z,104.07
2022-10-31T12:06:41.565Z,103.20
2022-10-31T12:09:35.359Z,107.40
2022-10-31T12:12:14.714Z,111.95
2022-10-31T12:15:12.670Z,106.45
2022-10-31T12:18:10.988Z,103.03
2022-10-31T12:21:13.516Z,106.90
2022-10-31T12:23:46.869Z,104.78
2022-10-31T12:26:32.701Z,102.38
2022-10-31T12:29:11.640Z,102.30
2022-10-31T12:34:30.715Z,102.30
2022-10-31T12:37:41.601Z,97.10
2022-10-31T12:40:43.013Z,106.05
2022-10-31T12:43:48.619Z,91.78
2022-10-31T12:46:57.541Z,101.70
2022-10-31T12:52:18.522Z,99.35
2022-10-31T12:55:21.513Z,100.75
2022-10-31T12:57:59.410Z,97.70
2022-10-31T13:00:30.463Z,105.23
2022-10-31T13:03:53.224Z,104.18
2022-10-31T13:06:29.770Z,102.00
2022-10-31T13:09:11.276Z,99.75
2022-10-31T13:11:46.707Z,98.78
2022-10-31T13:14:23.236Z,97.93
2022-10-31T13:16:52.712Z,107.40
2022-10-31T13:22:18.790Z,100.68
2022-10-31T13:25:16.572Z,104.05
2022-10-31T13:27:51.509Z,99.97
2022-10-31T13:30:25.677Z,105.97
2022-10-31T13:32:59.899Z,97.95
2022-10-31T13:35:42.496Z,101.18
2022-10-31T13:38:49.471Z,101.55
2022-10-31T13:41:55.091Z,95.65
2022-10-31T13:44:26.825Z,94.10
2022-10-31T13:46:57.515Z,92.15
2022-10-31T13:49:31.209Z,101.15
2022-10-31T13:52:10.605Z,101.40
2022-10-31T13:54:46.683Z,101.68
2022-10-31T13:57:41.375Z,90.13
2022-10-31T14:00:21.670Z,95.60
2022-10-31T14:02:56.769Z,94.50
2022-10-31T14:05:34.591Z,95.30
2022-10-31T14:08:17.668Z,104.28
2022-10-31T14:10:52.745Z,104.82
2022-10-31T14:13:32.280Z,100.88
2022-10-31T14:16:06.981Z,106.40
2022-10-31T14:18:42.712Z,102.57
2022-10-31T14:21:25.624Z,104.18
2022-10-31T14:23:55.098Z,113.43
2022-10-31T14:26:32.025Z,110.15
2022-10-31T14:29:13.977Z,109.18
2022-10-31T14:32:13.469Z,111.72
2022-10-31T14:35:00.928Z,106.85
2022-10-31T14:37:53.114Z,115.72
2022-10-31T14:40:45.613Z,110.22
2022-10-31T14:43:39.373Z,110.32
2022-10-31T14:46:34.754Z,120.68
2022-10-31T14:49:47.466Z,125.65
2022-10-31T14:52:18.131Z,118.55
2022-10-31T14:54:56.478Z,125.78
2022-10-31T14:57:33.856Z,123.28
2022-10-31T15:00:29.157Z,121.65
2022-10-31T15:03:25.871Z,121.40
2022-10-31T15:05:57.752Z,119.68
2022-10-31T15:08:46.403Z,123.25
2022-10-31T15:11:15.335Z,119.78
2022-10-31T15:13:58.145Z,132.07
2022-10-31T15:16:36.852Z,121.75
2022-10-31T15:19:28.840Z,133.00
2022-10-31T15:21:58.908Z,137.10
2022-10-31T15:24:39.847Z,137.50
2022-10-31T15:27:15.185Z,124.47
2022-10-31T15:29:57.388Z,131.48
2022-10-31T15:32:30.273Z,138.75
2022-10-31T15:34:58.353Z,133.60
2022-10-31T15:37:27.886Z,130.77
2022-10-31T15:39:55.458Z,144.88
2022-10-31T15:43:04.940Z,134.25
2022-10-31T15:45:32.914Z,132.43
2022-10-31T15:48:14.770Z,139.98
2022-10-31T15:50:53.268Z,147.15
2022-10-31T15:53:46.017Z,145.27
2022-10-31T15:56:26.579Z,145.07
2022-10-31T15:58:56.529Z,150.98
2022-10-31T16:01:33.365Z,148.23
2022-10-31T16:04:13.438Z,151.30
2022-10-31T16:06:41.691Z,153.18
2022-10-31T16:09:49.504Z,147.70
2022-10-31T16:12:21.456Z,136.48
2022-10-31T16:14:54.134Z,141.80
2022-10-31T16:17:25.795Z,145.43
2022-10-31T16:20:05.304Z,138.98
2022-10-31T16:22:39.007Z,138.82
2022-10-31T16:25:17.086Z,141.30
2022-10-31T16:27:54.778Z,146.60
2022-10-31T16:30:48.202Z,136.68
2022-10-31T16:33:22.560Z,157.65
2022-10-31T16:35:55.774Z,144.93
2022-10-31T16:38:26.750Z,147.98
2022-10-31T16:40:55.254Z,140.95
2022-10-31T16:43:24.353Z,135.93
2022-10-31T16:50:53.836Z,137.13
2022-10-31T16:56:04.826Z,136.18
2022-10-31T16:58:35.706Z,145.32
2022-10-31T17:01:06.863Z,134.32
2022-10-31T17:03:34.851Z,140.07
2022-10-31T17:06:02.978Z,137.77
2022-10-31T17:08:31.092Z,138.80
2022-10-31T17:10:59.718Z,139.63
2022-10-31T17:13:30.960Z,139.38
2022-10-31T17:16:02.926Z,132.82
2022-10-31T17:18:31.102Z,142.35
2022-10-31T17:21:07.239Z,135.68
2022-10-31T17:23:36.002Z,130.07
2022-10-31T17:26:03.953Z,120.78
2022-10-31T17:28:31.656Z,125.30
2022-10-31T17:30:59.675Z,118.72
2022-10-31T17:33:27.543Z,122.47
2022-10-31T17:35:55.694Z,123.85
2022-10-31T17:38:24.024Z,117.38
2022-10-31T17:40:54.756Z,118.28
2022-10-31T17:43:27.076Z,119.88
2022-10-31T17:45:54.978Z,120.32
2022-10-31T17:48:22.441Z,132.45
2022-10-31T17:50:50.203Z,139.93
2022-10-31T17:53:17.704Z,134.10
2022-10-31T17:55:45.634Z,117.20
2022-10-31T17:58:13.884Z,115.40
2022-10-31T18:00:44.740Z,113.32
2022-10-31T18:03:14.870Z,101.78
2022-10-31T18:05:59.338Z,110.30
2022-10-31T18:08:33.141Z,99.65
2022-10-31T18:11:06.523Z,96.97
2022-10-31T18:13:34.009Z,99.40
2022-10-31T18:16:02.617Z,98.82
2022-10-31T18:18:30.071Z,97.13
2022-10-31T18:20:58.447Z,107.45
2022-10-31T18:23:25.950Z,104.68
2022-10-31T18:25:55.460Z,99.20
2022-10-31T18:28:23.010Z,94.47
2022-10-31T18:30:50.813Z,104.45
2022-10-31T18:33:18.374Z,103.43
2022-10-31T18:35:46.333Z,97.80
2022-10-31T18:38:13.909Z,97.07
2022-10-31T18:40:41.907Z,108.53
2022-10-31T18:43:09.407Z,104.30
2022-10-31T18:45:47.286Z,105.45
2022-10-31T18:48:17.929Z,111.50
2022-10-31T18:50:45.798Z,104.07
2022-10-31T18:53:13.414Z,113.88
2022-10-31T18:55:45.410Z,106.75
2022-10-31T18:58:17.185Z,119.97
2022-10-31T19:00:46.037Z,106.80
2022-10-31T19:03:14.729Z,116.22
2022-10-31T19:05:42.508Z,116.50
2022-10-31T19:08:10.790Z,111.13
2022-10-31T19:10:40.193Z,116.13
2022-10-31T19:13:08.429Z,118.80
2022-10-31T19:15:36.829Z,128.80
2022-10-31T19:18:04.860Z,126.18
2022-10-31T19:20:33.163Z,129.00
2022-10-31T19:23:01.033Z,121.05
2022-10-31T19:25:28.963Z,129.35
2022-10-31T19:27:56.453Z,111.38
2022-10-31T19:30:24.278Z,123.15
2022-10-31T19:32:56.203Z,121.47
2022-10-31T19:35:23.957Z,122.35
2022-10-31T19:37:51.561Z,128.88
2022-10-31T19:40:19.525Z,128.02
2022-10-31T19:42:47.353Z,134.80
2022-10-31T19:45:15.124Z,130.48
2022-10-31T19:47:42.593Z,129.90
2022-10-31T19:50:10.405Z,122.88
2022-10-31T19:52:39.209Z,126.55
2022-10-31T19:55:07.273Z,108.78
2022-10-31T19:58:00.368Z,109.70
2022-10-31T20:00:24.837Z,104.65
2022-10-31T20:02:52.433Z,104.78
2022-10-31T20:05:20.165Z,96.40
2022-10-31T20:07:47.620Z,110.85
2022-10-31T20:10:15.395Z,101.05
2022-10-31T20:12:43.185Z,99.70
2022-10-31T20:15:11.044Z,109.65
2022-10-31T20:17:38.582Z,98.80
2022-10-31T20:20:08.948Z,88.43
2022-10-31T20:22:37.357Z,94.82
2022-10-31T20:25:06.262Z,95.63
2022-10-31T20:27:33.870Z,99.90
2022-10-31T20:30:01.949Z,101.07
2022-10-31T20:32:31.308Z,104.25
2022-10-31T20:34:59.377Z,106.43
2022-10-31T20:37:26.954Z,108.55
2022-10-31T20:39:56.575Z,109.30
2022-10-31T20:42:24.795Z,105.43
2022-10-31T20:44:52.797Z,121.25
2022-10-31T20:47:23.418Z,110.55
2022-10-31T20:49:54.183Z,115.88
2022-10-31T20:52:21.922Z,120.85
2022-10-31T20:54:50.099Z,116.45
2022-10-31T20:57:17.691Z,122.85
2022-10-31T20:59:45.837Z,123.85
2022-10-31T21:02:13.693Z,122.40
2022-10-31T21:04:42.451Z,128.00
2022-10-31T21:07:09.960Z,126.07
2022-10-31T21:09:38.296Z,134.00
2022-10-31T21:12:06.227Z,133.93
2022-10-31T21:14:34.234Z,128.70
2022-10-31T21:17:02.452Z,124.38
2022-10-31T21:19:31.093Z,117.43
2022-10-31T21:21:58.542Z,119.80
2022-10-31T21:24:28.803Z,121.80
2022-10-31T21:26:56.374Z,113.00
2022-10-31T21:29:24.881Z,119.38
2022-10-31T21:31:52.674Z,117.53
2022-10-31T21:34:20.375Z,114.20
2022-10-31T21:36:47.947Z,107.85
2022-10-31T21:39:15.690Z,112.20
2022-10-31T21:41:45.736Z,118.18
2022-10-31T21:44:13.597Z,104.60
2022-10-31T21:46:41.594Z,105.75
2022-10-31T21:49:11.684Z,104.75
2022-10-31T21:51:40.921Z,103.93
2022-10-31T21:54:28.433Z,97.90
2022-10-31T21:56:57.850Z,87.28
2022-10-31T21:59:26.233Z,94.45
2022-10-31T22:01:56.999Z,85.32
2022-10-31T22:04:24.954Z,83.57
2022-10-31T22:06:52.665Z,83.63
2022-10-31T22:09:20.606Z,79.57
2022-10-31T22:11:48.118Z,87.45
2022-10-31T22:14:16.258Z,78.70
2022-10-31T22:16:44.311Z,91.60
2022-10-31T22:19:14.477Z,83.93
2022-10-31T22:21:49.054Z,85.05
2022-10-31T22:24:18.034Z,81.93
2022-10-31T22:26:46.062Z,132.67
2022-10-31T22:29:18.926Z,79.35
2022-10-31T22:31:57.227Z,94.97
2022-10-31T22:34:27.825Z,77.25
2022-10-31T22:36:56.712Z,71.93
2022-10-31T22:39:24.814Z,73.60
2022-10-31T22:41:52.413Z,71.90
2022-10-31T22:44:20.660Z,71.93
2022-10-31T22:46:48.161Z,72.07
2022-10-31T22:49:16.501Z,73.25
2022-10-31T22:51:45.059Z,64.45
2022-10-31T22:54:18.523Z,73.72
2022-10-31T22:56:46.681Z,67.22
2022-10-31T22:59:16.517Z,81.40
2022-10-31T23:04:17.105Z,63.00
2022-10-31T23:09:16.227Z,62.13
2022-10-31T23:11:44.888Z,65.45
2022-10-31T23:14:20.620Z,78.40
2022-10-31T23:16:55.608Z,65.80
2022-10-31T23:19:29.898Z,76.00
2022-10-31T23:22:04.929Z,66.97
2022-10-31T23:24:40.453Z,66.70
2022-10-31T23:27:21.453Z,67.15
2022-10-31T23:29:55.597Z,66.53
2022-10-31T23:32:38.074Z,62.65
2022-10-31T23:35:29.365Z,59.37
2022-10-31T23:38:05.915Z,66.13
2022-10-31T23:40:48.434Z,70.85
2022-10-31T23:43:39.269Z,69.03
2022-10-31T23:46:17.791Z,68.75
2022-10-31T23:49:43.648Z,67.22
2022-10-31T23:52:28.069Z,74.70
2022-10-31T23:55:05.344Z,78.93
2022-10-31T23:57:42.538Z,101.05
